createdAt,value
2019-04-23T00:00:27.755Z,0
2019-04-23T00:01:55.386Z,0
2019-04-23T00:02:33.017Z,0
2019-04-23T00:03:18.562Z,0
2019-04-23T00:03:57.700Z,0
2019-04-23T00:04:34.997Z,0
2019-04-23T00:05:35.111Z,0
2019-04-23T00:06:06.513Z,0
2019-04-23T00:06:57.203Z,0
2019-04-23T00:07:35.204Z,0
2019-04-23T00:08:09.336Z,0
2019-04-23T00:08:57.602Z,0
2019-04-23T00:09:32.713Z,0
2019-04-23T00:10:18.591Z,0
2019-04-23T00:10:58.242Z,0
2019-04-23T00:11:39.235Z,0
2019-04-23T00:12:29.734Z,0
2019-04-23T00:13:10.646Z,0
2019-04-23T00:13:43.477Z,0
2019-04-23T00:15:40.034Z,0
2019-04-23T00:16:24.691Z,0
2019-04-23T00:17:04.268Z,0
2019-04-23T00:18:42.062Z,0
2019-04-23T00:19:02.216Z,0
2019-04-23T00:19:46.977Z,0
2019-04-23T00:20:25.152Z,0
2019-04-23T00:21:13.022Z,0
2019-04-23T00:21:51.927Z,0
2019-04-23T00:22:36.400Z,0
2019-04-23T00:23:10.524Z,0
2019-04-23T00:24:01.324Z,0
2019-04-23T00:25:32.859Z,0
2019-04-23T00:25:59.102Z,0
2019-04-23T00:26:36.281Z,0
2019-04-23T00:27:57.670Z,0
2019-04-23T00:28:40.681Z,0
2019-04-23T00:29:18.310Z,0
2019-04-23T00:30:09.304Z,0
2019-04-23T00:31:23.758Z,0
2019-04-23T00:31:59.374Z,0
2019-04-23T00:32:39.026Z,0
2019-04-23T00:33:24.666Z,0
2019-04-23T00:34:08.860Z,0
2019-04-23T00:35:25.325Z,0
2019-04-23T00:36:09.018Z,0
2019-04-23T00:36:50.954Z,0
2019-04-23T00:37:30.891Z,0
2019-04-23T00:38:18.006Z,0
2019-04-23T00:38:49.366Z,0
2019-04-23T00:39:40.585Z,0
2019-04-23T00:40:18.680Z,0
2019-04-23T00:40:57.173Z,0
2019-04-23T00:41:42.388Z,0
2019-04-23T00:42:20.042Z,0
2019-04-23T00:43:01.780Z,0
2019-04-23T00:43:42.721Z,0
2019-04-23T00:44:22.583Z,0
2019-04-23T00:45:16.083Z,0
2019-04-23T00:45:43.823Z,0
2019-04-23T00:46:27.735Z,0
2019-04-23T00:47:08.675Z,0
2019-04-23T00:47:49.428Z,0
2019-04-23T00:49:10.523Z,0
2019-04-23T00:49:58.439Z,0
2019-04-23T00:50:37.897Z,0
2019-04-23T00:51:01.782Z,0
2019-04-23T00:51:58.170Z,0
2019-04-23T00:52:31.817Z,0
2019-04-23T00:53:17.006Z,0
2019-04-23T00:53:49.921Z,0
2019-04-23T00:54:39.021Z,0
2019-04-23T00:55:14.307Z,0
2019-04-23T00:56:11.439Z,0
2019-04-23T00:56:44.321Z,0
2019-04-23T00:57:23.879Z,0
2019-04-23T01:01:49.226Z,0
2019-04-23T01:02:30.707Z,0
2019-04-23T01:03:51.618Z,0
2019-04-23T01:04:31.444Z,0
2019-04-23T01:06:28.626Z,0
2019-04-23T01:07:10.894Z,0
2019-04-23T01:07:49.590Z,0
2019-04-23T01:08:35.176Z,0
2019-04-23T01:09:13.888Z,0
2019-04-23T01:09:59.528Z,0
2019-04-23T01:10:42.879Z,0
2019-04-23T01:11:19.797Z,0
2019-04-23T01:11:57.666Z,0
2019-04-23T01:12:45.751Z,0
2019-04-23T01:13:30.870Z,0
2019-04-23T01:14:00.646Z,0
2019-04-23T01:14:38.225Z,0
2019-04-23T01:15:38.599Z,0
2019-04-23T01:16:05.291Z,0
2019-04-23T01:16:42.329Z,0
2019-04-23T01:17:31.667Z,0
2019-04-23T01:18:10.747Z,0
2019-04-23T01:18:51.193Z,0
2019-04-23T01:19:43.055Z,0
2019-04-23T01:20:07.932Z,0
2019-04-23T01:20:49.931Z,0
2019-04-23T01:21:09.878Z,0
2019-04-23T01:21:51.509Z,0
2019-04-23T01:22:33.438Z,0
2019-04-23T01:23:13.925Z,0
2019-04-23T01:24:00.214Z,0
2019-04-23T01:24:38.176Z,0
2019-04-23T01:25:24.334Z,0
2019-04-23T01:26:16.101Z,0
2019-04-23T01:27:13.893Z,0
2019-04-23T01:28:26.424Z,0
2019-04-23T01:29:06.525Z,0
2019-04-23T01:29:50.448Z,0
2019-04-23T01:30:27.321Z,0
2019-04-23T01:32:31.281Z,0
2019-04-23T01:33:08.990Z,0
2019-04-23T01:33:50.010Z,0
2019-04-23T01:34:38.545Z,0
2019-04-23T01:36:09.217Z,0
2019-04-23T01:36:32.353Z,0
2019-04-23T01:37:17.910Z,0
2019-04-23T01:37:57.821Z,0
2019-04-23T01:38:45.315Z,0
2019-04-23T01:39:22.541Z,0
2019-04-23T01:40:11.667Z,0
2019-04-23T01:41:00.150Z,0
2019-04-23T01:41:26.359Z,0
2019-04-23T01:42:11.375Z,0
2019-04-23T01:43:29.933Z,0
2019-04-23T01:44:13.601Z,0
2019-04-23T01:46:28.530Z,0
2019-04-23T01:47:07.548Z,0
2019-04-23T01:48:25.914Z,0
2019-04-23T01:49:05.565Z,0
2019-04-23T01:49:53.484Z,0
2019-04-23T01:50:27.381Z,0
2019-04-23T01:51:00.178Z,0
2019-04-23T01:51:52.815Z,0
2019-04-23T01:52:37.510Z,0
2019-04-23T01:53:14.269Z,0
2019-04-23T01:53:49.383Z,0
2019-04-23T01:54:36.891Z,0
2019-04-23T01:55:14.787Z,0
2019-04-23T01:56:32.998Z,0
2019-04-23T01:57:16.203Z,0
2019-04-23T01:59:38.405Z,0
2019-04-23T02:00:08.056Z,0
2019-04-23T02:00:40.544Z,0
2019-04-23T02:01:25.117Z,0
2019-04-23T02:02:04.375Z,0
2019-04-23T02:02:49.164Z,0
2019-04-23T02:03:19.234Z,0
2019-04-23T02:04:16.340Z,0
2019-04-23T02:04:42.801Z,0
2019-04-23T02:05:27.119Z,0
2019-04-23T02:06:06.548Z,0
2019-04-23T02:06:50.345Z,0
2019-04-23T02:07:35.387Z,0
2019-04-23T02:08:07.391Z,0
2019-04-23T02:08:51.723Z,0
2019-04-23T02:09:33.991Z,0
2019-04-23T02:10:20.333Z,0
2019-04-23T02:10:56.119Z,0
2019-04-23T02:11:36.892Z,0
2019-04-23T02:12:17.872Z,0
2019-04-23T02:13:00.112Z,0
2019-04-23T02:14:19.571Z,0
2019-04-23T02:15:02.018Z,0
2019-04-23T02:15:40.726Z,0
2019-04-23T02:16:24.453Z,0
2019-04-23T02:16:59.884Z,0
2019-04-23T02:17:44.120Z,0
2019-04-23T02:18:20.359Z,0
2019-04-23T02:19:02.680Z,0
2019-04-23T02:19:51.083Z,0
2019-04-23T02:20:27.418Z,0
2019-04-23T02:21:05.475Z,0
2019-04-23T02:21:51.532Z,0
2019-04-23T02:22:29.806Z,0
2019-04-23T02:23:47.819Z,0
2019-04-23T02:24:33.552Z,0
2019-04-23T02:25:12.998Z,0
2019-04-23T02:25:53.598Z,0
2019-04-23T02:26:33.798Z,0
2019-04-23T02:27:18.802Z,0
2019-04-23T02:28:04.245Z,0
2019-04-23T02:28:45.887Z,0
2019-04-23T02:29:35.802Z,0
2019-04-23T02:30:25.856Z,0
2019-04-23T02:31:11.145Z,0
2019-04-23T02:33:09.934Z,0
2019-04-23T02:33:43.060Z,0
2019-04-23T02:34:20.617Z,0
2019-04-23T02:37:53.436Z,0
2019-04-23T02:38:55.354Z,0
2019-04-23T02:39:49.250Z,0
2019-04-23T02:40:25.910Z,0
2019-04-23T02:41:08.364Z,0
2019-04-23T02:41:53.591Z,0
2019-04-23T02:43:31.977Z,0
2019-04-23T02:44:23.819Z,0
2019-04-23T02:45:01.812Z,0
2019-04-23T02:45:56.148Z,0
2019-04-23T02:46:12.702Z,0
2019-04-23T02:47:16.731Z,0
2019-04-23T02:47:52.325Z,0
2019-04-23T02:48:30.371Z,0
2019-04-23T02:49:53.877Z,0
2019-04-23T02:51:10.075Z,0
2019-04-23T02:51:50.605Z,0
2019-04-23T02:52:28.536Z,0
2019-04-23T02:53:25.449Z,0
2019-04-23T02:55:24.666Z,0
2019-04-23T02:56:46.186Z,0
2019-04-23T02:57:18.412Z,0
2019-04-23T02:58:52.006Z,0
2019-04-23T02:59:27.897Z,0
2019-04-23T03:00:18.211Z,0
2019-04-23T03:01:23.452Z,0
2019-04-23T03:04:49.703Z,0
2019-04-23T03:05:35.669Z,0
2019-04-23T03:06:53.345Z,0
2019-04-23T03:07:38.789Z,0
2019-04-23T03:08:16.475Z,0
2019-04-23T03:08:48.918Z,0
2019-04-23T03:09:44.253Z,0
2019-04-23T03:10:20.231Z,0
2019-04-23T03:11:15.204Z,0
2019-04-23T03:11:47.700Z,0
2019-04-23T03:13:19.040Z,0
2019-04-23T03:13:53.312Z,0
2019-04-23T03:14:32.484Z,0
2019-04-23T03:15:19.291Z,0
2019-04-23T03:16:00.257Z,0
2019-04-23T03:16:37.523Z,0
2019-04-23T03:17:24.014Z,0
2019-04-23T03:17:57.258Z,0
2019-04-23T03:19:14.646Z,0
2019-04-23T03:19:58.311Z,0
2019-04-23T03:21:55.712Z,0
2019-04-23T03:22:44.142Z,0
2019-04-23T03:24:20.518Z,0
2019-04-23T03:24:43.145Z,0
2019-04-23T03:25:30.715Z,0
2019-04-23T03:26:08.085Z,0
2019-04-23T03:26:55.037Z,0
2019-04-23T03:27:28.530Z,0
2019-04-23T03:28:06.672Z,0
2019-04-23T03:29:31.031Z,0
2019-04-23T03:30:15.453Z,0
2019-04-23T03:32:11.561Z,0
2019-04-23T03:32:44.427Z,0
2019-04-23T03:36:08.915Z,0
2019-04-23T03:37:16.019Z,0
2019-04-23T03:38:28.073Z,0
2019-04-23T03:40:13.090Z,0
2019-04-23T03:41:14.316Z,0
2019-04-23T03:41:47.803Z,0
2019-04-23T03:42:22.099Z,0
2019-04-23T03:43:06.195Z,0
2019-04-23T03:43:40.953Z,0
2019-04-23T03:45:15.722Z,0
2019-04-23T03:46:11.448Z,0
2019-04-23T03:46:41.468Z,0
2019-04-23T03:47:17.998Z,0
2019-04-23T03:47:55.912Z,0
2019-04-23T03:49:19.200Z,4
2019-04-23T03:50:04.211Z,0
2019-04-23T03:51:25.871Z,0
2019-04-23T03:52:00.758Z,0
2019-04-23T03:52:44.146Z,4
2019-04-23T03:53:32.142Z,0
2019-04-23T03:57:52.001Z,4
2019-04-23T03:59:26.271Z,4
2019-04-23T04:00:45.299Z,4
2019-04-23T04:01:34.151Z,4
2019-04-23T04:02:18.049Z,4
2019-04-23T04:02:56.160Z,4
2019-04-23T04:03:49.889Z,4
2019-04-23T04:04:49.183Z,8
2019-04-23T04:05:45.137Z,8
2019-04-23T04:06:23.197Z,8
2019-04-23T04:20:04.767Z,84
2019-04-23T04:20:48.658Z,92
2019-04-23T04:21:38.519Z,100
2019-04-23T04:22:08.416Z,108
2019-04-23T04:24:21.238Z,140
2019-04-23T04:25:33.437Z,160
2019-04-23T04:26:13.042Z,168
2019-04-23T04:26:57.709Z,176
2019-04-23T04:27:35.553Z,188
2019-04-23T04:28:17.072Z,204
2019-04-23T04:28:50.812Z,216
2019-04-23T05:07:54.084Z,3068
2019-04-23T05:08:36.435Z,3468
2019-04-23T05:09:40.303Z,3632
2019-04-23T05:10:07.165Z,3872
2019-04-23T05:10:42.894Z,3940
2019-04-23T05:12:10.775Z,3624
2019-04-23T05:12:35.640Z,3404
2019-04-23T05:13:59.515Z,3412
2019-04-23T05:14:52.308Z,3572
2019-04-23T05:15:16.153Z,3952
2019-04-23T05:16:42.969Z,3512
2019-04-23T05:17:23.487Z,3108
2019-04-23T05:18:17.144Z,3360
2019-04-23T05:18:43.874Z,4216
2019-04-23T05:19:42.307Z,4824
2019-04-23T05:20:52.193Z,3820
2019-04-23T05:21:26.283Z,3340
2019-04-23T05:22:05.085Z,3208
2019-04-23T05:22:59.277Z,3128
2019-04-23T05:23:33.249Z,2972
2019-04-23T05:24:08.100Z,2748
2019-04-23T05:24:44.766Z,2544
2019-04-23T05:25:24.119Z,2344
2019-04-23T05:26:08.327Z,2180
2019-04-23T05:26:57.789Z,2040
2019-04-23T05:27:36.319Z,1892
2019-04-23T05:28:11.079Z,1772
2019-04-23T05:29:03.600Z,1692
2019-04-23T05:29:30.098Z,1656
2019-04-23T05:30:14.718Z,1640
2019-04-23T05:30:58.511Z,1640
2019-04-23T05:31:27.506Z,1648
2019-04-23T05:32:11.806Z,1664
2019-04-23T05:32:55.824Z,1684
2019-04-23T05:33:36.616Z,1708
2019-04-23T05:34:14.290Z,1740
2019-04-23T05:34:55.321Z,1768
2019-04-23T05:36:01.885Z,1804
2019-04-23T05:36:45.268Z,1840
2019-04-23T05:36:59.703Z,1888
2019-04-23T05:37:50.176Z,1936
2019-04-23T05:38:42.658Z,1992
2019-04-23T05:39:07.365Z,2060
2019-04-23T05:39:45.294Z,2132
2019-04-23T05:40:29.558Z,2220
2019-04-23T05:41:09.792Z,2324
2019-04-23T05:41:45.024Z,2440
2019-04-23T05:42:25.876Z,2576
2019-04-23T05:43:02.889Z,2696
2019-04-23T05:44:38.135Z,2900
2019-04-23T05:45:15.349Z,2976
2019-04-23T05:45:55.017Z,3060
2019-04-23T05:46:36.457Z,3160
2019-04-23T05:47:26.950Z,3288
2019-04-23T05:48:06.564Z,3468
2019-04-23T05:48:37.163Z,3712
2019-04-23T05:50:06.518Z,4364
2019-04-23T05:50:50.430Z,4620
2019-04-23T05:51:27.755Z,4788
2019-04-23T05:51:58.720Z,5040
2019-04-23T05:52:45.654Z,5388
2019-04-23T05:53:26.811Z,5984
2019-04-23T05:54:06.359Z,6876
2019-04-23T05:54:56.111Z,7808
2019-04-23T05:55:33.849Z,8768
2019-04-23T05:56:12.970Z,9592
2019-04-23T05:56:51.520Z,10308
2019-04-23T05:57:34.187Z,10072
2019-04-23T05:58:16.353Z,9236
2019-04-23T05:58:57.600Z,8104
2019-04-23T05:59:34.085Z,7544
2019-04-23T06:00:15.627Z,7220
2019-04-23T06:01:05.080Z,7180
2019-04-23T06:02:16.796Z,7644
2019-04-23T06:03:04.319Z,8000
2019-04-23T06:03:37.888Z,8820
2019-04-23T06:04:56.998Z,9724
2019-04-23T06:05:46.029Z,10212
2019-04-23T06:06:29.207Z,11888
2019-04-23T06:07:42.131Z,16352
2019-04-23T06:08:31.869Z,18016
2019-04-23T06:09:07.655Z,19680
2019-04-23T06:09:45.935Z,20928
2019-04-23T06:10:26.826Z,21376
2019-04-23T06:11:08.114Z,21504
2019-04-23T06:11:59.530Z,21472
2019-04-23T06:12:31.180Z,21056
2019-04-23T06:13:11.769Z,20032
2019-04-23T06:14:00.108Z,18912
2019-04-23T06:14:32.593Z,18400
2019-04-23T06:15:10.912Z,18752
2019-04-23T06:15:50.196Z,19232
2019-04-23T06:17:20.767Z,19136
2019-04-23T06:18:01.376Z,19072
2019-04-23T06:18:43.844Z,20480
2019-04-23T06:19:32.544Z,22112
2019-04-23T06:20:08.962Z,22848
2019-04-23T06:21:02.077Z,23232
2019-04-23T06:21:33.717Z,22848
2019-04-23T06:22:15.031Z,22944
2019-04-23T06:22:49.112Z,23872
2019-04-23T06:23:36.345Z,21056
2019-04-23T06:24:16.132Z,19680
2019-04-23T06:28:20.802Z,21216
2019-04-23T06:29:04.777Z,24224
2019-04-23T06:29:42.772Z,24128
2019-04-23T06:30:25.533Z,23936
2019-04-23T06:31:06.112Z,22048
2019-04-23T06:32:24.059Z,18240
2019-04-23T06:33:05.429Z,15584
2019-04-23T06:33:46.126Z,14092
2019-04-23T06:34:27.922Z,14108
2019-04-23T06:35:28.406Z,15840
2019-04-23T06:35:50.116Z,16416
2019-04-23T06:36:32.004Z,16096
2019-04-23T06:37:36.635Z,16000
2019-04-23T06:39:23.178Z,15424
2019-04-23T06:39:59.609Z,13992
2019-04-23T06:40:40.312Z,13636
2019-04-23T06:41:21.020Z,12924
2019-04-23T06:42:00.158Z,12036
2019-04-23T06:42:34.185Z,13096
2019-04-23T06:43:23.904Z,11472
2019-04-23T06:44:12.595Z,10868
2019-04-23T06:44:44.818Z,10968
2019-04-23T06:45:27.467Z,10524
2019-04-23T06:46:11.520Z,9752
2019-04-23T06:46:56.577Z,7956
2019-04-23T06:47:28.659Z,8048
2019-04-23T06:48:15.285Z,9220
2019-04-23T06:48:53.331Z,10472
2019-04-23T06:49:36.846Z,10732
2019-04-23T06:50:11.510Z,11028
2019-04-23T06:51:04.041Z,11100
2019-04-23T06:51:43.600Z,11544
2019-04-23T06:52:58.676Z,11428
2019-04-23T06:53:49.656Z,11080
2019-04-23T06:54:35.667Z,11080
2019-04-23T06:55:14.417Z,11660
2019-04-23T06:55:55.232Z,12404
2019-04-23T06:56:32.230Z,11804
2019-04-23T06:57:16.123Z,11588
2019-04-23T06:57:53.966Z,10828
2019-04-23T06:58:36.899Z,10396
2019-04-23T06:59:16.860Z,9900
2019-04-23T06:59:53.935Z,9888
2019-04-23T07:00:40.936Z,9920
2019-04-23T07:01:17.382Z,9684
2019-04-23T07:02:05.963Z,9920
2019-04-23T07:02:44.051Z,9788
2019-04-23T07:03:29.282Z,9180
2019-04-23T07:04:04.773Z,9628
2019-04-23T07:04:49.469Z,9412
2019-04-23T07:05:22.207Z,8380
2019-04-23T07:06:50.425Z,8272
2019-04-23T07:07:42.300Z,7908
2019-04-23T07:08:11.359Z,7776
2019-04-23T07:09:17.066Z,7976
2019-04-23T07:10:09.610Z,7876
2019-04-23T07:10:57.323Z,7736
2019-04-23T07:11:41.460Z,7824
2019-04-23T07:12:14.825Z,8052
2019-04-23T07:12:55.599Z,8192
2019-04-23T07:13:46.339Z,8120
2019-04-23T07:14:11.713Z,8040
2019-04-23T07:15:44.590Z,7824
2019-04-23T07:16:20.991Z,7660
2019-04-23T07:17:02.227Z,7532
2019-04-23T07:17:39.293Z,7144
2019-04-23T07:18:29.040Z,6880
2019-04-23T07:19:16.186Z,6844
2019-04-23T07:20:06.482Z,6644
2019-04-23T07:20:33.256Z,6448
2019-04-23T07:21:17.604Z,6204
2019-04-23T07:22:06.163Z,5932
2019-04-23T07:22:34.379Z,5636
2019-04-23T07:23:18.866Z,5356
2019-04-23T07:24:41.746Z,5056
2019-04-23T07:25:21.892Z,4968
2019-04-23T07:26:05.896Z,4900
2019-04-23T07:26:51.504Z,4824
2019-04-23T07:27:24.388Z,4796
2019-04-23T07:28:12.765Z,4788
2019-04-23T07:28:58.397Z,4752
2019-04-23T07:29:30.652Z,4728
2019-04-23T07:30:20.411Z,4740
2019-04-23T07:30:49.313Z,4760
2019-04-23T07:32:10.639Z,4812
2019-04-23T07:33:34.522Z,4876
2019-04-23T07:34:12.185Z,4880
2019-04-23T07:35:00.756Z,4944
2019-04-23T07:35:30.031Z,5044
2019-04-23T07:36:22.614Z,5208
2019-04-23T07:36:58.606Z,5284
2019-04-23T07:37:39.863Z,5204
2019-04-23T07:38:31.101Z,5088
2019-04-23T07:39:45.414Z,4788
2019-04-23T07:40:26.851Z,4660
2019-04-23T07:41:05.443Z,4592
2019-04-23T07:42:29.154Z,4460
2019-04-23T07:43:07.849Z,4436
2019-04-23T07:43:54.235Z,4400
2019-04-23T07:44:35.086Z,4352
2019-04-23T07:45:51.542Z,4288
2019-04-23T07:48:01.295Z,4280
2019-04-23T07:48:27.121Z,4256
2019-04-23T07:55:17.665Z,4208
2019-04-23T07:56:02.041Z,4200
2019-04-23T07:56:35.289Z,4192
2019-04-23T07:57:18.520Z,4156
2019-04-23T07:58:33.049Z,4092
2019-04-23T07:59:24.691Z,4056
2019-04-23T08:00:07.238Z,4016
2019-04-23T08:00:45.020Z,3976
2019-04-23T08:01:17.238Z,3920
2019-04-23T08:02:13.765Z,3884
2019-04-23T08:02:42.144Z,3852
2019-04-23T08:03:28.786Z,3820
2019-04-23T08:04:16.187Z,3804
2019-04-23T08:05:07.453Z,3772
2019-04-23T08:05:38.503Z,3776
2019-04-23T08:06:21.155Z,3752
2019-04-23T08:07:06.387Z,3728
2019-04-23T08:07:49.073Z,3700
2019-04-23T08:08:30.027Z,3692
2019-04-23T08:09:17.013Z,3680
2019-04-23T08:10:00.049Z,3644
2019-04-23T08:11:00.293Z,3620
2019-04-23T08:13:30.770Z,3528
2019-04-23T08:14:21.861Z,3504
2019-04-23T08:14:52.786Z,3476
2019-04-23T08:27:09.613Z,3136
2019-04-23T08:27:55.317Z,3132
2019-04-23T08:28:48.119Z,3132
2019-04-23T08:29:18.212Z,3120
2019-04-23T08:29:55.294Z,3120
2019-04-23T08:30:37.621Z,3104
2019-04-23T08:31:21.705Z,3104
2019-04-23T08:32:34.746Z,3092
2019-04-23T08:33:23.102Z,3076
2019-04-23T08:34:16.389Z,3064
2019-04-23T08:34:58.302Z,3060
2019-04-23T08:35:26.523Z,3044
2019-04-23T08:36:11.519Z,3052
2019-04-23T08:36:54.663Z,3056
2019-04-23T08:37:46.542Z,3052
2019-04-23T08:38:18.406Z,3052
2019-04-23T08:38:56.603Z,3064
2019-04-23T08:39:38.171Z,3060
2019-04-23T08:40:19.719Z,3080
2019-04-23T08:41:08.777Z,3088
2019-04-23T08:41:51.344Z,3104
2019-04-23T08:43:07.069Z,3120
2019-04-23T08:44:35.167Z,3136
2019-04-23T08:45:46.061Z,3160
2019-04-23T08:46:31.391Z,3176
2019-04-23T08:47:08.481Z,3128
2019-04-23T08:47:50.464Z,3128
2019-04-23T08:49:21.651Z,3164
2019-04-23T08:50:03.733Z,3180
2019-04-23T08:51:20.586Z,3184
2019-04-23T08:51:27.870Z,3200
2019-04-23T08:51:59.942Z,3204
2019-04-23T08:52:28.385Z,3216
2019-04-23T08:54:02.750Z,3236
2019-04-23T08:55:32.044Z,3328
2019-04-23T08:56:20.386Z,3340
2019-04-23T08:56:54.585Z,3360
2019-04-23T08:57:26.748Z,3376
2019-04-23T08:58:13.121Z,3384
2019-04-23T08:58:47.177Z,3404
2019-04-23T08:59:38.554Z,3416
2019-04-23T09:00:13.731Z,3352
2019-04-23T09:01:32.471Z,3372
2019-04-23T09:02:58.495Z,3420
2019-04-23T09:03:34.122Z,3416
2019-04-23T09:04:23.223Z,3436
2019-04-23T09:04:59.567Z,3480
2019-04-23T09:05:44.604Z,3428
2019-04-23T09:06:21.362Z,3540
2019-04-23T09:08:32.256Z,3552
2019-04-23T09:09:19.844Z,3548
2019-04-23T09:10:40.767Z,3544
2019-04-23T09:12:41.502Z,3468
2019-04-23T09:13:59.119Z,3492
2019-04-23T09:14:50.774Z,3484
2019-04-23T09:16:08.271Z,3516
2019-04-23T09:16:50.795Z,3520
2019-04-23T09:17:33.946Z,3496
2019-04-23T09:18:14.271Z,3500
2019-04-23T09:18:52.446Z,3468
2019-04-23T09:19:42.122Z,3396
2019-04-23T09:20:54.558Z,3432
2019-04-23T09:21:39.735Z,3496
2019-04-23T09:22:54.586Z,3380
2019-04-23T09:23:46.500Z,3356
2019-04-23T09:24:25.543Z,3308
2019-04-23T09:25:11.393Z,3280
2019-04-23T09:26:25.642Z,3236
2019-04-23T09:27:15.565Z,3244
2019-04-23T09:27:52.435Z,3228
2019-04-23T09:28:39.578Z,3224
2019-04-23T09:29:11.709Z,3180
2019-04-23T09:29:59.880Z,3136
2019-04-23T09:30:31.583Z,3092
2019-04-23T09:32:34.719Z,3036
2019-04-23T09:33:30.574Z,3064
2019-04-23T09:34:09.312Z,3024
2019-04-23T09:34:51.988Z,3020
2019-04-23T09:35:25.697Z,3008
2019-04-23T09:36:13.068Z,2928
2019-04-23T09:37:34.497Z,2852
2019-04-23T09:38:10.962Z,2832
2019-04-23T09:38:52.301Z,2816
2019-04-23T09:39:34.156Z,2884
2019-04-23T09:40:24.011Z,2800
2019-04-23T09:41:50.827Z,2632
2019-04-23T09:42:23.831Z,2600
2019-04-23T09:43:06.713Z,2580
2019-04-23T09:43:45.053Z,2556
2019-04-23T09:44:47.031Z,2556
2019-04-23T09:45:47.934Z,2544
2019-04-23T09:47:13.759Z,2576
2019-04-23T09:48:00.984Z,2572
2019-04-23T09:48:34.812Z,2564
2019-04-23T09:49:14.295Z,2552
2019-04-23T09:49:53.738Z,2548
2019-04-23T09:50:36.333Z,2556
2019-04-23T09:51:22.135Z,2516
2019-04-23T09:52:00.562Z,2524
2019-04-23T09:52:44.457Z,2468
2019-04-23T09:53:24.360Z,2432
2019-04-23T09:54:02.697Z,2412
2019-04-23T09:54:47.495Z,2408
2019-04-23T09:55:27.253Z,2376
2019-04-23T09:55:59.539Z,2388
2019-04-23T09:56:47.133Z,2376
2019-04-23T09:57:24.117Z,2388
2019-04-23T09:58:11.546Z,2388
2019-04-23T09:59:00.955Z,2404
2019-04-23T10:00:24.836Z,2516
2019-04-23T10:00:50.885Z,2532
2019-04-23T10:01:28.793Z,2508
2019-04-23T10:02:14.520Z,2472
2019-04-23T10:02:52.865Z,2456
2019-04-23T10:03:32.817Z,2436
2019-04-23T10:04:11.158Z,2440
2019-04-23T10:04:55.400Z,2452
2019-04-23T10:05:30.774Z,2472
2019-04-23T10:06:08.105Z,2468
2019-04-23T10:06:55.087Z,2444
2019-04-23T10:07:34.611Z,2412
2019-04-23T10:08:11.255Z,2392
2019-04-23T10:08:49.120Z,2388
2019-04-23T10:09:27.316Z,2364
2019-04-23T10:10:07.974Z,2348
2019-04-23T10:10:47.255Z,2352
2019-04-23T10:11:28.347Z,2348
2019-04-23T10:12:09.407Z,2340
2019-04-23T10:12:50.165Z,2324
2019-04-23T10:13:29.842Z,2324
2019-04-23T10:14:10.593Z,2316
2019-04-23T10:14:57.453Z,2328
2019-04-23T10:15:37.103Z,2332
2019-04-23T10:16:19.300Z,2320
2019-04-23T10:16:58.013Z,2312
2019-04-23T10:17:40.260Z,2296
2019-04-23T10:18:20.172Z,2284
2019-04-23T10:19:00.946Z,2288
2019-04-23T10:19:42.750Z,2296
2019-04-23T10:20:24.798Z,2304
2019-04-23T10:21:05.566Z,2292
2019-04-23T10:21:45.000Z,2284
2019-04-23T10:22:27.214Z,2268
2019-04-23T10:23:08.297Z,2260
2019-04-23T10:23:49.578Z,2252
2019-04-23T10:24:28.958Z,2248
2019-04-23T10:25:10.946Z,2240
2019-04-23T10:25:50.070Z,2240
2019-04-23T10:26:30.461Z,2244
2019-04-23T10:27:11.748Z,2264
2019-04-23T10:27:56.875Z,2292
2019-04-23T10:28:33.712Z,2296
2019-04-23T10:29:13.944Z,2292
2019-04-23T11:07:53.109Z,2388
2019-04-23T11:08:23.748Z,2384
2019-04-23T11:09:12.961Z,2344
2019-04-23T11:10:25.380Z,2324
2019-04-23T11:11:58.795Z,2332
2019-04-23T11:12:41.378Z,2320
2019-04-23T11:13:23.541Z,2316
2019-04-23T11:13:58.510Z,2316
2019-04-23T11:15:31.559Z,2276
2019-04-23T11:17:32.606Z,2364
2019-04-23T11:18:02.324Z,2320
2019-04-23T11:18:56.537Z,2328
2019-04-23T11:19:39.717Z,2324
2019-04-23T11:20:25.148Z,2308
2019-04-23T11:20:55.687Z,2316
2019-04-23T11:21:40.171Z,2312
2019-04-23T11:22:35.656Z,2284
2019-04-23T11:23:03.435Z,2280
2019-04-23T11:23:40.487Z,2288
2019-04-23T11:24:29.287Z,2248
2019-04-23T11:25:09.663Z,2228
2019-04-23T11:25:34.658Z,2236
2019-04-23T11:26:27.988Z,2228
2019-04-23T11:27:03.765Z,2216
2019-04-23T11:28:25.557Z,2236
2019-04-23T11:29:10.822Z,2236
2019-04-23T11:31:11.697Z,2180
2019-04-23T11:31:52.005Z,2184
2019-04-23T11:32:36.313Z,2164
2019-04-23T11:34:56.153Z,2216
2019-04-23T11:36:17.296Z,2232
2019-04-23T11:37:21.725Z,2224
2019-04-23T11:38:20.250Z,2232
2019-04-23T11:39:21.474Z,2236
2019-04-23T11:40:15.178Z,2224
2019-04-23T11:40:36.585Z,2224
2019-04-23T11:41:41.337Z,2240
2019-04-23T11:42:16.414Z,2236
2019-04-23T11:42:49.249Z,2240
2019-04-23T11:43:26.743Z,2252
2019-04-23T11:44:11.264Z,2260
2019-04-23T11:44:45.555Z,2256
2019-04-23T11:46:32.058Z,2276
2019-04-23T11:47:00.413Z,2276
2019-04-23T11:48:31.009Z,2304
2019-04-23T11:50:27.537Z,2336
2019-04-23T11:51:52.223Z,2336
2019-04-23T11:52:29.923Z,2316
2019-04-23T11:52:58.895Z,2312
2019-04-23T11:54:22.508Z,2312
2019-04-23T11:55:11.589Z,2336
2019-04-23T11:55:51.503Z,2328
2019-04-23T11:58:05.575Z,2328
2019-04-23T11:58:35.574Z,2316
2019-04-23T11:59:30.939Z,2304
2019-04-23T11:59:57.118Z,2308
2019-04-23T12:01:01.970Z,2292
2019-04-23T12:02:10.728Z,2260
2019-04-23T12:02:49.255Z,2276
2019-04-23T12:03:36.539Z,2296
2019-04-23T12:04:26.102Z,2304
2019-04-23T12:06:23.463Z,2328
2019-04-23T12:06:57.754Z,2332
2019-04-23T12:07:55.407Z,2328
2019-04-23T12:08:33.202Z,2324
2019-04-23T12:09:04.433Z,2340
2019-04-23T12:09:53.247Z,2332
2019-04-23T12:10:37.571Z,2348
2019-04-23T12:11:38.969Z,2360
2019-04-23T12:13:18.942Z,2404
2019-04-23T12:13:59.420Z,2392
2019-04-23T12:14:38.753Z,2372
2019-04-23T12:15:24.975Z,2352
2019-04-23T12:15:58.584Z,2368
2019-04-23T12:16:46.901Z,2360
2019-04-23T12:17:57.765Z,2344
2019-04-23T12:18:51.272Z,2344
2019-04-23T12:20:39.573Z,2304
2019-04-23T12:21:37.189Z,2296
2019-04-23T12:23:48.239Z,2308
2019-04-23T12:24:41.812Z,2316
2019-04-23T12:25:44.115Z,2332
2019-04-23T12:26:35.224Z,2332
2019-04-23T12:27:41.829Z,2344
2019-04-23T12:28:37.874Z,2336
2019-04-23T12:29:26.855Z,2356
2019-04-23T12:29:59.674Z,2340
2019-04-23T12:30:44.821Z,2336
2019-04-23T12:31:24.501Z,2328
2019-04-23T12:32:11.474Z,2324
2019-04-23T12:34:13.667Z,2324
2019-04-23T12:35:27.226Z,2328
2019-04-23T12:36:14.268Z,2340
2019-04-23T12:36:50.288Z,2344
2019-04-23T12:37:34.404Z,2320
2019-04-23T12:38:13.502Z,2320
2019-04-23T12:38:54.525Z,2320
2019-04-23T12:39:41.375Z,2316
2019-04-23T12:40:24.632Z,2304
2019-04-23T12:40:54.806Z,2296
2019-04-23T12:41:43.149Z,2292
2019-04-23T12:42:40.890Z,2284
2019-04-23T12:43:38.316Z,2284
2019-04-23T12:44:30.428Z,2260
2019-04-23T12:45:20.391Z,2264
2019-04-23T12:46:37.690Z,2276
2019-04-23T12:47:23.892Z,2268
2019-04-23T12:48:13.480Z,2276
2019-04-23T12:51:34.442Z,2268
2019-04-23T12:52:09.616Z,2260
2019-04-23T12:52:50.789Z,2252
2019-04-23T12:53:33.244Z,2240
2019-04-23T12:54:31.555Z,2240
2019-04-23T12:55:06.639Z,2232
2019-04-23T12:55:39.850Z,2224
2019-04-23T12:56:29.996Z,2196
2019-04-23T12:57:44.687Z,2164
2019-04-23T12:58:24.410Z,2144
2019-04-23T12:59:03.886Z,2140
2019-04-23T12:59:49.400Z,2136
2019-04-23T13:00:30.643Z,2104
2019-04-23T13:01:13.282Z,2076
2019-04-23T13:01:55.164Z,2064
2019-04-23T13:02:37.913Z,2048
2019-04-23T13:03:16.345Z,2036
2019-04-23T13:03:50.218Z,2028
2019-04-23T13:04:41.112Z,2016
2019-04-23T13:05:29.733Z,2000
2019-04-23T13:05:58.963Z,1980
2019-04-23T13:06:43.911Z,1968
2019-04-23T13:07:37.866Z,1956
2019-04-23T13:08:26.613Z,1936
2019-04-23T13:09:00.176Z,1920
2019-04-23T13:09:52.348Z,1904
2019-04-23T13:11:05.201Z,1872
2019-04-23T13:11:40.496Z,1864
2019-04-23T13:13:14.653Z,1848
2019-04-23T13:13:51.766Z,1832
2019-04-23T13:14:40.831Z,1824
2019-04-23T13:15:15.426Z,1836
2019-04-23T13:15:51.706Z,1840
2019-04-23T13:16:43.191Z,1848
2019-04-23T13:17:29.179Z,1844
2019-04-23T13:18:16.744Z,1848
2019-04-23T13:18:49.422Z,1844
2019-04-23T13:19:39.294Z,1832
2019-04-23T13:20:41.261Z,1824
2019-04-23T13:21:51.151Z,1828